sensor_id;sensor_type;location;lat;lon;timestamp;pressure;altitude;pressure_sealevel;temperature;humidity
47913;BME280;33676;51.006;17.180;2022-12-07T00:01:46;99790.09;;;2.64;100.00
47913;BME280;33676;51.006;17.180;2022-12-07T00:04:17;99790.25;;;2.64;100.00
47913;BME280;33676;51.006;17.180;2022-12-07T00:06:51;99789.39;;;2.64;100.00
47913;BME280;33676;51.006;17.180;2022-12-07T00:09:20;99794.20;;;2.64;100.00
47913;BME280;33676;51.006;17.180;2022-12-07T00:11:51;99794.40;;;2.64;100.00
47913;BME280;33676;51.006;17.180;2022-12-07T00:14:20;99790.52;;;2.63;100.00
47913;BME280;33676;51.006;17.180;2022-12-07T00:16:51;99787.34;;;2.61;100.00
47913;BME280;33676;51.006;17.180;2022-12-07T00:19:20;99783.17;;;2.58;100.00
47913;BME280;33676;51.006;17.180;2022-12-07T00:21:48;99785.14;;;2.57;100.00
47913;BME280;33676;51.006;17.180;2022-12-07T00:24:17;99780.59;;;2.55;100.00
47913;BME280;33676;51.006;17.180;2022-12-07T00:26:45;99781.66;;;2.54;100.00
47913;BME280;33676;51.006;17.180;2022-12-07T00:29:20;99780.67;;;2.53;100.00
47913;BME280;33676;51.006;17.180;2022-12-07T00:31:49;99779.64;;;2.54;100.00
47913;BME280;33676;51.006;17.180;2022-12-07T00:34:21;99775.56;;;2.52;100.00
47913;BME280;33676;51.006;17.180;2022-12-07T00:36:50;99771.33;;;2.51;100.00
47913;BME280;33676;51.006;17.180;2022-12-07T00:39:19;99770.98;;;2.51;100.00
47913;BME280;33676;51.006;17.180;2022-12-07T00:41:47;99764.80;;;2.50;100.00
47913;BME280;33676;51.006;17.180;2022-12-07T00:44:16;99758.80;;;2.50;100.00
47913;BME280;33676;51.006;17.180;2022-12-07T00:46:44;99758.31;;;2.49;100.00
47913;BME280;33676;51.006;17.180;2022-12-07T00:49:14;99758.02;;;2.48;100.00
47913;BME280;33676;51.006;17.180;2022-12-07T00:51:42;99755.41;;;2.49;100.00
47913;BME280;33676;51.006;17.180;2022-12-07T00:54:11;99755.52;;;2.50;100.00
47913;BME280;33676;51.006;17.180;2022-12-07T00:56:39;99762.04;;;2.50;100.00
47913;BME280;33676;51.006;17.180;2022-12-07T00:59:12;99762.52;;;2.51;100.00
47913;BME280;33676;51.006;17.180;2022-12-07T01:01:44;99763.59;;;2.50;100.00
47913;BME280;33676;51.006;17.180;2022-12-07T01:04:13;99765.80;;;2.51;100.00
47913;BME280;33676;51.006;17.180;2022-12-07T01:06:42;99768.19;;;2.52;100.00
47913;BME280;33676;51.006;17.180;2022-12-07T01:09:10;99764.20;;;2.52;100.00
47913;BME280;33676;51.006;17.180;2022-12-07T01:11:39;99764.11;;;2.50;100.00
47913;BME280;33676;51.006;17.180;2022-12-07T01:14:08;99759.05;;;2.51;100.00
47913;BME280;33676;51.006;17.180;2022-12-07T01:16:38;99761.46;;;2.51;100.00
47913;BME280;33676;51.006;17.180;2022-12-07T01:19:07;99754.24;;;2.51;100.00
47913;BME280;33676;51.006;17.180;2022-12-07T01:21:35;99757.90;;;2.50;100.00
47913;BME280;33676;51.006;17.180;2022-12-07T01:24:09;99759.31;;;2.50;100.00
47913;BME280;33676;51.006;17.180;2022-12-07T01:26:39;99761.08;;;2.49;100.00
47913;BME280;33676;51.006;17.180;2022-12-07T01:29:07;99762.85;;;2.48;100.00
47913;BME280;33676;51.006;17.180;2022-12-07T01:31:36;99758.77;;;2.47;100.00
47913;BME280;33676;51.006;17.180;2022-12-07T01:34:04;99761.08;;;2.46;100.00
47913;BME280;33676;51.006;17.180;2022-12-07T01:36:36;99759.43;;;2.44;100.00
47913;BME280;33676;51.006;17.180;2022-12-07T01:39:07;99759.69;;;2.43;100.00
47913;BME280;33676;51.006;17.180;2022-12-07T01:41:39;99763.33;;;2.42;100.00
47913;BME280;33676;51.006;17.180;2022-12-07T01:44:29;99763.36;;;2.42;100.00
47913;BME280;33676;51.006;17.180;2022-12-07T01:47:02;99763.39;;;2.41;100.00
47913;BME280;33676;51.006;17.180;2022-12-07T01:49:44;99759.11;;;2.41;100.00
47913;BME280;33676;51.006;17.180;2022-12-07T01:52:21;99763.20;;;2.41;100.00
47913;BME280;33676;51.006;17.180;2022-12-07T01:55:00;99760.09;;;2.42;100.00
47913;BME280;33676;51.006;17.180;2022-12-07T01:57:32;99763.50;;;2.42;100.00
47913;BME280;33676;51.006;17.180;2022-12-07T02:00:04;99763.02;;;2.42;100.00
47913;BME280;33676;51.006;17.180;2022-12-07T02:02:43;99763.48;;;2.43;100.00
47913;BME280;33676;51.006;17.180;2022-12-07T02:05:13;99762.27;;;2.43;100.00
47913;BME280;33676;51.006;17.180;2022-12-07T02:07:42;99768.91;;;2.44;100.00
47913;BME280;33676;51.006;17.180;2022-12-07T02:10:23;99769.43;;;2.44;100.00
47913;BME280;33676;51.006;17.180;2022-12-07T02:13:22;99764.51;;;2.43;100.00
47913;BME280;33676;51.006;17.180;2022-12-07T02:30:19;99760.08;;;2.28;100.00
47913;BME280;33676;51.006;17.180;2022-12-07T02:33:08;99755.95;;;2.25;100.00
47913;BME280;33676;51.006;17.180;2022-12-07T02:43:50;99757.95;;;2.13;100.00
47913;BME280;33676;51.006;17.180;2022-12-07T02:46:47;99756.88;;;2.11;100.00
47913;BME280;33676;51.006;17.180;2022-12-07T02:49:18;99762.73;;;2.08;100.00
47913;BME280;33676;51.006;17.180;2022-12-07T02:51:47;99759.86;;;2.07;100.00
47913;BME280;33676;51.006;17.180;2022-12-07T02:54:19;99765.43;;;2.06;100.00
47913;BME280;33676;51.006;17.180;2022-12-07T03:00:07;99760.91;;;2.03;100.00
47913;BME280;33676;51.006;17.180;2022-12-07T03:05:40;99748.00;;;1.99;100.00
47913;BME280;33676;51.006;17.180;2022-12-07T03:11:00;99748.45;;;1.97;100.00
47913;BME280;33676;51.006;17.180;2022-12-07T03:16:36;99751.75;;;1.96;100.00
47913;BME280;33676;51.006;17.180;2022-12-07T03:19:18;99750.92;;;1.96;100.00
47913;BME280;33676;51.006;17.180;2022-12-07T03:21:57;99754.39;;;1.95;100.00
47913;BME280;33676;51.006;17.180;2022-12-07T03:24:35;99750.96;;;1.95;100.00
47913;BME280;33676;51.006;17.180;2022-12-07T03:27:20;99751.06;;;1.96;100.00
47913;BME280;33676;51.006;17.180;2022-12-07T03:30:07;99750.85;;;1.97;100.00
47913;BME280;33676;51.006;17.180;2022-12-07T03:32:57;99751.52;;;1.98;100.00
47913;BME280;33676;51.006;17.180;2022-12-07T03:35:40;99745.13;;;1.98;100.00
47913;BME280;33676;51.006;17.180;2022-12-07T03:41:16;99740.96;;;1.98;100.00
47913;BME280;33676;51.006;17.180;2022-12-07T03:43:48;99740.41;;;1.99;100.00
47913;BME280;33676;51.006;17.180;2022-12-07T03:49:50;99731.97;;;1.99;100.00
47913;BME280;33676;51.006;17.180;2022-12-07T03:52:40;99730.92;;;1.99;100.00
47913;BME280;33676;51.006;17.180;2022-12-07T03:55:26;99726.03;;;2.01;100.00
47913;BME280;33676;51.006;17.180;2022-12-07T03:58:09;99720.12;;;2.02;100.00
47913;BME280;33676;51.006;17.180;2022-12-07T04:00:41;99724.40;;;2.03;100.00
47913;BME280;33676;51.006;17.180;2022-12-07T04:03:11;99727.11;;;2.04;100.00
47913;BME280;33676;51.006;17.180;2022-12-07T04:05:40;99728.04;;;2.06;100.00
47913;BME280;33676;51.006;17.180;2022-12-07T04:08:09;99727.15;;;2.06;100.00
47913;BME280;33676;51.006;17.180;2022-12-07T04:10:38;99727.77;;;2.07;100.00
47913;BME280;33676;51.006;17.180;2022-12-07T04:13:06;99728.38;;;2.09;100.00
47913;BME280;33676;51.006;17.180;2022-12-07T04:15:35;99729.74;;;2.09;100.00
47913;BME280;33676;51.006;17.180;2022-12-07T04:18:04;99729.23;;;2.09;100.00
47913;BME280;33676;51.006;17.180;2022-12-07T04:20:33;99729.88;;;2.09;100.00
47913;BME280;33676;51.006;17.180;2022-12-07T04:23:01;99732.30;;;2.09;100.00
47913;BME280;33676;51.006;17.180;2022-12-07T04:25:30;99730.04;;;2.10;100.00
47913;BME280;33676;51.006;17.180;2022-12-07T04:27:58;99728.52;;;2.09;100.00
47913;BME280;33676;51.006;17.180;2022-12-07T04:30:28;99727.11;;;2.10;100.00
47913;BME280;33676;51.006;17.180;2022-12-07T04:32:56;99724.84;;;2.10;100.00
47913;BME280;33676;51.006;17.180;2022-12-07T04:35:25;99726.19;;;2.11;100.00
47913;BME280;33676;51.006;17.180;2022-12-07T04:37:53;99727.24;;;2.10;100.00
47913;BME280;33676;51.006;17.180;2022-12-07T04:40:22;99727.09;;;2.10;100.00
47913;BME280;33676;51.006;17.180;2022-12-07T04:42:50;99729.64;;;2.10;100.00
47913;BME280;33676;51.006;17.180;2022-12-07T04:45:19;99725.38;;;2.09;100.00
47913;BME280;33676;51.006;17.180;2022-12-07T04:47:48;99726.29;;;2.09;100.00
47913;BME280;33676;51.006;17.180;2022-12-07T04:50:16;99724.19;;;2.09;100.00
47913;BME280;33676;51.006;17.180;2022-12-07T04:52:45;99721.37;;;2.11;100.00
47913;BME280;33676;51.006;17.180;2022-12-07T04:55:13;99719.41;;;2.12;100.00
47913;BME280;33676;51.006;17.180;2022-12-07T04:57:42;99723.84;;;2.13;100.00
47913;BME280;33676;51.006;17.180;2022-12-07T05:00:12;99720.52;;;2.14;100.00
47913;BME280;33676;51.006;17.180;2022-12-07T05:02:40;99720.64;;;2.15;100.00
47913;BME280;33676;51.006;17.180;2022-12-07T05:05:09;99721.98;;;2.15;100.00
47913;BME280;33676;51.006;17.180;2022-12-07T05:07:37;99718.86;;;2.15;100.00
47913;BME280;33676;51.006;17.180;2022-12-07T05:10:07;99718.27;;;2.17;100.00
47913;BME280;33676;51.006;17.180;2022-12-07T05:12:36;99719.09;;;2.18;100.00
47913;BME280;33676;51.006;17.180;2022-12-07T05:15:04;99717.48;;;2.18;100.00
47913;BME280;33676;51.006;17.180;2022-12-07T05:17:33;99715.30;;;2.21;100.00
47913;BME280;33676;51.006;17.180;2022-12-07T05:20:03;99716.93;;;2.23;100.00
47913;BME280;33676;51.006;17.180;2022-12-07T05:22:32;99716.66;;;2.24;100.00
47913;BME280;33676;51.006;17.180;2022-12-07T05:25:01;99719.19;;;2.26;100.00
47913;BME280;33676;51.006;17.180;2022-12-07T05:27:30;99721.55;;;2.26;100.00
47913;BME280;33676;51.006;17.180;2022-12-07T05:29:58;99718.63;;;2.26;100.00
47913;BME280;33676;51.006;17.180;2022-12-07T05:32:27;99714.14;;;2.27;100.00
47913;BME280;33676;51.006;17.180;2022-12-07T05:34:56;99715.88;;;2.26;100.00
47913;BME280;33676;51.006;17.180;2022-12-07T05:37:25;99717.77;;;2.26;100.00
47913;BME280;33676;51.006;17.180;2022-12-07T05:39:54;99717.60;;;2.26;100.00
47913;BME280;33676;51.006;17.180;2022-12-07T05:42:22;99721.09;;;2.25;100.00
47913;BME280;33676;51.006;17.180;2022-12-07T05:44:51;99722.64;;;2.26;100.00
47913;BME280;33676;51.006;17.180;2022-12-07T05:47:19;99720.80;;;2.25;100.00
47913;BME280;33676;51.006;17.180;2022-12-07T05:49:48;99726.69;;;2.24;100.00
47913;BME280;33676;51.006;17.180;2022-12-07T05:52:17;99727.38;;;2.24;100.00
47913;BME280;33676;51.006;17.180;2022-12-07T05:54:45;99725.95;;;2.25;100.00
47913;BME280;33676;51.006;17.180;2022-12-07T05:57:14;99728.02;;;2.25;100.00
47913;BME280;33676;51.006;17.180;2022-12-07T05:59:42;99725.05;;;2.25;100.00
47913;BME280;33676;51.006;17.180;2022-12-07T06:02:14;99726.05;;;2.26;100.00
47913;BME280;33676;51.006;17.180;2022-12-07T06:04:46;99724.46;;;2.27;100.00
47913;BME280;33676;51.006;17.180;2022-12-07T06:07:16;99721.81;;;2.28;100.00
47913;BME280;33676;51.006;17.180;2022-12-07T06:09:45;99720.93;;;2.29;100.00
47913;BME280;33676;51.006;17.180;2022-12-07T06:12:15;99715.39;;;2.29;100.00
47913;BME280;33676;51.006;17.180;2022-12-07T06:15:02;99718.97;;;2.30;100.00
47913;BME280;33676;51.006;17.180;2022-12-07T06:17:31;99714.79;;;2.30;100.00
47913;BME280;33676;51.006;17.180;2022-12-07T06:20:00;99715.63;;;2.31;100.00
47913;BME280;33676;51.006;17.180;2022-12-07T06:22:29;99718.19;;;2.32;100.00
47913;BME280;33676;51.006;17.180;2022-12-07T06:24:57;99721.79;;;2.32;100.00
47913;BME280;33676;51.006;17.180;2022-12-07T06:27:26;99722.34;;;2.31;100.00
47913;BME280;33676;51.006;17.180;2022-12-07T06:29:54;99722.00;;;2.31;100.00
47913;BME280;33676;51.006;17.180;2022-12-07T06:32:23;99721.50;;;2.31;100.00
47913;BME280;33676;51.006;17.180;2022-12-07T06:34:52;99722.01;;;2.31;100.00
47913;BME280;33676;51.006;17.180;2022-12-07T06:37:20;99716.49;;;2.31;100.00
47913;BME280;33676;51.006;17.180;2022-12-07T06:39:49;99719.77;;;2.31;100.00
47913;BME280;33676;51.006;17.180;2022-12-07T06:42:17;99724.30;;;2.30;100.00
47913;BME280;33676;51.006;17.180;2022-12-07T06:44:46;99723.63;;;2.30;100.00
47913;BME280;33676;51.006;17.180;2022-12-07T06:47:14;99725.34;;;2.30;100.00
47913;BME280;33676;51.006;17.180;2022-12-07T06:50:04;99719.42;;;2.31;100.00
47913;BME280;33676;51.006;17.180;2022-12-07T06:52:34;99715.98;;;2.31;100.00
47913;BME280;33676;51.006;17.180;2022-12-07T06:55:04;99720.78;;;2.31;100.00
47913;BME280;33676;51.006;17.180;2022-12-07T06:57:33;99714.86;;;2.32;100.00
47913;BME280;33676;51.006;17.180;2022-12-07T07:00:03;99713.98;;;2.33;100.00
47913;BME280;33676;51.006;17.180;2022-12-07T07:02:33;99712.05;;;2.33;100.00
47913;BME280;33676;51.006;17.180;2022-12-07T07:05:03;99716.55;;;2.33;100.00
47913;BME280;33676;51.006;17.180;2022-12-07T07:07:31;99712.35;;;2.34;100.00
47913;BME280;33676;51.006;17.180;2022-12-07T07:10:19;99716.48;;;2.35;100.00
47913;BME280;33676;51.006;17.180;2022-12-07T07:12:47;99717.34;;;2.35;100.00
47913;BME280;33676;51.006;17.180;2022-12-07T07:15:22;99713.21;;;2.34;100.00
47913;BME280;33676;51.006;17.180;2022-12-07T07:17:51;99714.20;;;2.36;100.00
47913;BME280;33676;51.006;17.180;2022-12-07T07:20:20;99708.63;;;2.36;100.00
47913;BME280;33676;51.006;17.180;2022-12-07T07:22:49;99709.31;;;2.36;100.00
47913;BME280;33676;51.006;17.180;2022-12-07T07:25:17;99708.05;;;2.38;100.00
47913;BME280;33676;51.006;17.180;2022-12-07T07:27:47;99711.13;;;2.38;100.00
47913;BME280;33676;51.006;17.180;2022-12-07T07:30:15;99714.02;;;2.39;100.00
47913;BME280;33676;51.006;17.180;2022-12-07T07:32:44;99716.71;;;2.40;100.00
47913;BME280;33676;51.006;17.180;2022-12-07T07:35:13;99711.58;;;2.39;100.00
47913;BME280;33676;51.006;17.180;2022-12-07T07:37:42;99709.23;;;2.41;100.00
47913;BME280;33676;51.006;17.180;2022-12-07T07:40:11;99705.16;;;2.43;100.00
47913;BME280;33676;51.006;17.180;2022-12-07T07:42:42;99709.04;;;2.45;100.00
47913;BME280;33676;51.006;17.180;2022-12-07T07:45:11;99710.45;;;2.47;100.00
47913;BME280;33676;51.006;17.180;2022-12-07T07:47:39;99711.52;;;2.50;100.00
47913;BME280;33676;51.006;17.180;2022-12-07T07:50:08;99709.60;;;2.53;100.00
47913;BME280;33676;51.006;17.180;2022-12-07T07:52:37;99712.16;;;2.57;100.00
47913;BME280;33676;51.006;17.180;2022-12-07T07:55:06;99708.85;;;2.60;100.00
47913;BME280;33676;51.006;17.180;2022-12-07T07:57:39;99715.50;;;2.65;100.00
47913;BME280;33676;51.006;17.180;2022-12-07T08:00:12;99716.16;;;2.69;100.00
47913;BME280;33676;51.006;17.180;2022-12-07T08:02:42;99711.15;;;2.72;100.00
47913;BME280;33676;51.006;17.180;2022-12-07T08:05:12;99712.60;;;2.74;100.00
47913;BME280;33676;51.006;17.180;2022-12-07T08:07:41;99711.34;;;2.75;100.00
47913;BME280;33676;51.006;17.180;2022-12-07T08:10:13;99717.00;;;2.76;100.00
47913;BME280;33676;51.006;17.180;2022-12-07T08:12:43;99719.80;;;2.75;100.00
47913;BME280;33676;51.006;17.180;2022-12-07T08:15:30;99719.18;;;2.77;100.00
47913;BME280;33676;51.006;17.180;2022-12-07T08:17:59;99717.66;;;2.79;100.00
47913;BME280;33676;51.006;17.180;2022-12-07T08:20:31;99725.50;;;2.84;100.00
47913;BME280;33676;51.006;17.180;2022-12-07T08:23:01;99723.14;;;2.89;100.00
47913;BME280;33676;51.006;17.180;2022-12-07T08:25:30;99716.89;;;2.96;100.00
47913;BME280;33676;51.006;17.180;2022-12-07T08:27:59;99719.42;;;3.04;100.00
47913;BME280;33676;51.006;17.180;2022-12-07T08:30:29;99721.42;;;3.08;100.00
47913;BME280;33676;51.006;17.180;2022-12-07T08:32:58;99723.86;;;3.11;100.00
47913;BME280;33676;51.006;17.180;2022-12-07T08:35:27;99722.08;;;3.11;100.00
47913;BME280;33676;51.006;17.180;2022-12-07T08:37:55;99727.40;;;3.12;100.00
47913;BME280;33676;51.006;17.180;2022-12-07T08:40:26;99725.45;;;3.13;100.00
47913;BME280;33676;51.006;17.180;2022-12-07T08:42:54;99725.02;;;3.14;100.00
47913;BME280;33676;51.006;17.180;2022-12-07T08:45:23;99723.20;;;3.16;100.00
47913;BME280;33676;51.006;17.180;2022-12-07T08:48:10;99722.81;;;3.16;100.00
47913;BME280;33676;51.006;17.180;2022-12-07T08:50:41;99714.96;;;3.18;100.00
47913;BME280;33676;51.006;17.180;2022-12-07T08:53:16;99710.17;;;3.20;100.00
47913;BME280;33676;51.006;17.180;2022-12-07T08:55:46;99706.42;;;3.25;100.00
47913;BME280;33676;51.006;17.180;2022-12-07T08:58:15;99706.48;;;3.39;100.00
47913;BME280;33676;51.006;17.180;2022-12-07T09:00:44;99705.42;;;3.46;100.00
47913;BME280;33676;51.006;17.180;2022-12-07T09:03:13;99705.98;;;3.48;100.00
47913;BME280;33676;51.006;17.180;2022-12-07T09:05:41;99703.24;;;3.48;100.00
47913;BME280;33676;51.006;17.180;2022-12-07T09:08:10;99699.13;;;3.47;100.00
47913;BME280;33676;51.006;17.180;2022-12-07T09:10:39;99696.86;;;3.48;100.00
47913;BME280;33676;51.006;17.180;2022-12-07T09:13:07;99691.90;;;3.50;100.00
47913;BME280;33676;51.006;17.180;2022-12-07T09:15:36;99693.77;;;3.56;100.00
47913;BME280;33676;51.006;17.180;2022-12-07T09:18:05;99687.65;;;3.63;100.00
47913;BME280;33676;51.006;17.180;2022-12-07T09:20:33;99689.41;;;3.80;100.00
47913;BME280;33676;51.006;17.180;2022-12-07T09:23:02;99684.44;;;3.99;100.00
47913;BME280;33676;51.006;17.180;2022-12-07T09:25:31;99680.93;;;4.14;100.00
47913;BME280;33676;51.006;17.180;2022-12-07T09:27:59;99676.16;;;4.21;100.00
47913;BME280;33676;51.006;17.180;2022-12-07T09:30:28;99672.61;;;4.28;100.00
47913;BME280;33676;51.006;17.180;2022-12-07T09:32:57;99671.05;;;4.34;100.00
47913;BME280;33676;51.006;17.180;2022-12-07T09:35:26;99665.58;;;4.41;100.00
47913;BME280;33676;51.006;17.180;2022-12-07T09:37:55;99660.91;;;4.52;100.00
47913;BME280;33676;51.006;17.180;2022-12-07T09:40:24;99658.20;;;4.59;100.00
47913;BME280;33676;51.006;17.180;2022-12-07T09:42:54;99652.92;;;4.66;100.00
47913;BME280;33676;51.006;17.180;2022-12-07T09:45:35;99650.00;;;4.77;100.00
47913;BME280;33676;51.006;17.180;2022-12-07T09:48:05;99640.11;;;4.88;100.00
47913;BME280;33676;51.006;17.180;2022-12-07T09:50:37;99641.69;;;4.98;100.00
47913;BME280;33676;51.006;17.180;2022-12-07T09:53:13;99640.07;;;5.07;100.00
47913;BME280;33676;51.006;17.180;2022-12-07T09:55:43;99639.75;;;5.12;100.00
47913;BME280;33676;51.006;17.180;2022-12-07T09:58:25;99639.82;;;5.16;100.00
47913;BME280;33676;51.006;17.180;2022-12-07T10:01:11;99639.56;;;5.19;100.00
47913;BME280;33676;51.006;17.180;2022-12-07T10:03:52;99639.20;;;5.22;100.00
47913;BME280;33676;51.006;17.180;2022-12-07T10:06:21;99635.77;;;5.21;100.00
47913;BME280;33676;51.006;17.180;2022-12-07T10:08:50;99633.36;;;5.21;100.00
47913;BME280;33676;51.006;17.180;2022-12-07T10:11:18;99637.75;;;5.23;100.00
47913;BME280;33676;51.006;17.180;2022-12-07T10:13:52;99627.57;;;5.25;100.00
47913;BME280;33676;51.006;17.180;2022-12-07T10:16:38;99624.16;;;5.29;100.00
47913;BME280;33676;51.006;17.180;2022-12-07T10:19:23;99619.08;;;5.35;100.00
47913;BME280;33676;51.006;17.180;2022-12-07T10:22:11;99618.05;;;5.46;100.00
47913;BME280;33676;51.006;17.180;2022-12-07T10:24:42;99612.69;;;5.56;100.00
47913;BME280;33676;51.006;17.180;2022-12-07T10:27:32;99607.02;;;5.60;100.00
47913;BME280;33676;51.006;17.180;2022-12-07T10:30:07;99604.80;;;5.65;100.00
47913;BME280;33676;51.006;17.180;2022-12-07T10:32:36;99601.02;;;5.67;100.00
47913;BME280;33676;51.006;17.180;2022-12-07T10:35:28;99598.88;;;5.65;100.00
47913;BME280;33676;51.006;17.180;2022-12-07T10:37:59;99597.15;;;5.62;100.00
47913;BME280;33676;51.006;17.180;2022-12-07T10:40:33;99595.65;;;5.56;100.00
47913;BME280;33676;51.006;17.180;2022-12-07T10:57:16;99593.48;;;5.24;100.00
47913;BME280;33676;51.006;17.180;2022-12-07T11:08:52;99601.02;;;5.00;100.00
47913;BME280;33676;51.006;17.180;2022-12-07T11:27:09;99599.05;;;4.07;100.00
47913;BME280;33676;51.006;17.180;2022-12-07T11:30:09;99597.12;;;3.88;100.00
47913;BME280;33676;51.006;17.180;2022-12-07T11:33:04;99604.17;;;3.77;100.00
47913;BME280;33676;51.006;17.180;2022-12-07T11:36:01;99585.67;;;3.69;100.00
47913;BME280;33676;51.006;17.180;2022-12-07T11:39:02;99579.60;;;3.63;100.00
47913;BME280;33676;51.006;17.180;2022-12-07T11:41:36;99576.18;;;3.63;100.00
47913;BME280;33676;51.006;17.180;2022-12-07T11:46:50;99579.66;;;3.71;100.00
47913;BME280;33676;51.006;17.180;2022-12-07T11:50:22;99576.83;;;3.75;100.00
47913;BME280;33676;51.006;17.180;2022-12-07T11:52:57;99574.88;;;3.79;100.00
47913;BME280;33676;51.006;17.180;2022-12-07T11:58:14;99574.86;;;3.84;100.00
47913;BME280;33676;51.006;17.180;2022-12-07T12:00:51;99572.19;;;3.86;100.00
47913;BME280;33676;51.006;17.180;2022-12-07T12:03:30;99576.11;;;3.86;100.00
47913;BME280;33676;51.006;17.180;2022-12-07T12:06:02;99571.58;;;3.87;100.00
47913;BME280;33676;51.006;17.180;2022-12-07T12:08:46;99569.34;;;3.87;100.00
47913;BME280;33676;51.006;17.180;2022-12-07T12:12:16;99576.83;;;3.86;100.00
47913;BME280;33676;51.006;17.180;2022-12-07T12:21:07;99570.62;;;3.86;100.00
47913;BME280;33676;51.006;17.180;2022-12-07T12:23:51;99575.64;;;3.86;100.00
47913;BME280;33676;51.006;17.180;2022-12-07T12:26:25;99576.86;;;3.85;100.00
47913;BME280;33676;51.006;17.180;2022-12-07T12:29:06;99575.88;;;3.85;100.00
47913;BME280;33676;51.006;17.180;2022-12-07T12:31:40;99573.73;;;3.86;100.00
47913;BME280;33676;51.006;17.180;2022-12-07T12:42:52;99568.48;;;3.98;100.00
47913;BME280;33676;51.006;17.180;2022-12-07T12:48:03;99557.95;;;3.95;100.00
47913;BME280;33676;51.006;17.180;2022-12-07T12:50:37;99558.61;;;3.93;100.00
47913;BME280;33676;51.006;17.180;2022-12-07T12:53:24;99557.00;;;3.91;100.00
47913;BME280;33676;51.006;17.180;2022-12-07T12:56:41;99559.15;;;3.90;100.00
47913;BME280;33676;51.006;17.180;2022-12-07T13:02:36;99557.31;;;3.88;100.00
47913;BME280;33676;51.006;17.180;2022-12-07T13:10:46;99562.04;;;3.90;100.00
47913;BME280;33676;51.006;17.180;2022-12-07T13:15:51;99567.89;;;3.91;100.00
47913;BME280;33676;51.006;17.180;2022-12-07T13:20:58;99567.19;;;3.91;100.00
47913;BME280;33676;51.006;17.180;2022-12-07T13:29:17;99569.52;;;3.89;100.00
47913;BME280;33676;51.006;17.180;2022-12-07T13:31:55;99567.70;;;3.88;100.00
47913;BME280;33676;51.006;17.180;2022-12-07T13:34:40;99566.21;;;3.87;100.00
47913;BME280;33676;51.006;17.180;2022-12-07T13:40:01;99568.17;;;3.89;100.00
47913;BME280;33676;51.006;17.180;2022-12-07T13:42:44;99568.83;;;3.90;100.00
47913;BME280;33676;51.006;17.180;2022-12-07T13:45:29;99569.62;;;3.91;100.00
47913;BME280;33676;51.006;17.180;2022-12-07T13:50:56;99571.72;;;3.90;100.00
47913;BME280;33676;51.006;17.180;2022-12-07T13:53:25;99573.08;;;3.91;100.00
47913;BME280;33676;51.006;17.180;2022-12-07T13:56:00;99573.98;;;3.90;100.00
47913;BME280;33676;51.006;17.180;2022-12-07T13:58:31;99573.74;;;3.91;100.00
47913;BME280;33676;51.006;17.180;2022-12-07T14:01:01;99569.79;;;3.91;100.00
47913;BME280;33676;51.006;17.180;2022-12-07T14:03:33;99568.13;;;3.92;100.00
47913;BME280;33676;51.006;17.180;2022-12-07T14:06:16;99568.00;;;3.94;100.00
47913;BME280;33676;51.006;17.180;2022-12-07T14:08:46;99566.36;;;3.96;100.00
47913;BME280;33676;51.006;17.180;2022-12-07T14:11:20;99566.64;;;3.97;100.00
47913;BME280;33676;51.006;17.180;2022-12-07T14:14:02;99565.07;;;3.97;100.00
47913;BME280;33676;51.006;17.180;2022-12-07T14:16:35;99572.02;;;4.00;100.00
47913;BME280;33676;51.006;17.180;2022-12-07T14:19:40;99566.71;;;4.02;100.00
47913;BME280;33676;51.006;17.180;2022-12-07T14:24:49;99567.58;;;4.05;100.00
47913;BME280;33676;51.006;17.180;2022-12-07T14:27:23;99571.14;;;4.06;100.00
47913;BME280;33676;51.006;17.180;2022-12-07T14:29:54;99571.77;;;4.07;100.00
47913;BME280;33676;51.006;17.180;2022-12-07T14:32:27;99572.39;;;4.08;100.00
47913;BME280;33676;51.006;17.180;2022-12-07T14:35:13;99570.61;;;4.08;100.00
47913;BME280;33676;51.006;17.180;2022-12-07T14:37:45;99568.91;;;4.08;100.00
47913;BME280;33676;51.006;17.180;2022-12-07T14:40:26;99569.81;;;4.07;100.00
47913;BME280;33676;51.006;17.180;2022-12-07T14:43:22;99571.41;;;4.07;100.00
47913;BME280;33676;51.006;17.180;2022-12-07T14:45:50;99574.80;;;4.05;99.82
47913;BME280;33676;51.006;17.180;2022-12-07T14:48:19;99575.41;;;4.04;99.68
47913;BME280;33676;51.006;17.180;2022-12-07T14:51:11;99571.06;;;4.01;99.90
47913;BME280;33676;51.006;17.180;2022-12-07T14:54:00;99574.63;;;3.99;99.42
47913;BME280;33676;51.006;17.180;2022-12-07T14:56:29;99569.92;;;3.97;99.42
47913;BME280;33676;51.006;17.180;2022-12-07T14:58:57;99572.30;;;3.97;99.33
47913;BME280;33676;51.006;17.180;2022-12-07T15:01:26;99574.33;;;3.95;99.16
47913;BME280;33676;51.006;17.180;2022-12-07T15:03:54;99571.19;;;3.93;99.11
47913;BME280;33676;51.006;17.180;2022-12-07T15:06:24;99576.48;;;3.91;98.97
47913;BME280;33676;51.006;17.180;2022-12-07T15:08:52;99578.19;;;3.89;98.57
47913;BME280;33676;51.006;17.180;2022-12-07T15:11:21;99574.36;;;3.87;98.85
47913;BME280;33676;51.006;17.180;2022-12-07T15:13:49;99575.56;;;3.84;99.04
47913;BME280;33676;51.006;17.180;2022-12-07T15:16:40;99579.90;;;3.81;98.85
47913;BME280;33676;51.006;17.180;2022-12-07T15:19:29;99581.05;;;3.79;98.79
47913;BME280;33676;51.006;17.180;2022-12-07T15:21:58;99579.25;;;3.78;98.93
47913;BME280;33676;51.006;17.180;2022-12-07T15:24:28;99585.31;;;3.75;99.01
47913;BME280;33676;51.006;17.180;2022-12-07T15:26:56;99590.14;;;3.72;98.93
47913;BME280;33676;51.006;17.180;2022-12-07T15:29:25;99587.02;;;3.69;99.02
47913;BME280;33676;51.006;17.180;2022-12-07T15:31:54;99586.95;;;3.67;98.80
47913;BME280;33676;51.006;17.180;2022-12-07T15:34:26;99589.66;;;3.65;98.88